Time;durP1;ratioP1;P1;durP2;ratioP2;P2;SDS_P1;SDS_P2;PMS_P1;PMS_P2;Temp;Humidity;BMP_temperature;BMP_pressure;BME280_temperature;BME280_humidity;BME280_pressure;Samples;Min_cycle;Max_cycle;Signal;HPM_P1;HPM_P2
2022/07/05 04:02:19;;;;;;;5.75;4.63;;;12.60;99.90;;;;;;5138384;23;19926;-77
2022/07/05 04:04:44;;;;;;;6.78;4.88;;;12.50;99.90;;;;;;5014784;28;20399;-77
2022/07/05 04:07:10;;;;;;;4.80;4.30;;;12.60;99.90;;;;;;5012788;28;20073;-77
2022/07/05 04:09:36;;;;;;;5.90;4.28;;;12.70;99.90;;;;;;5013103;28;20034;-75
2022/07/05 04:12:02;;;;;;;5.45;4.60;;;12.50;99.90;;;;;;5002215;28;20034;-77
2022/07/05 04:14:27;;;;;;;5.63;4.40;;;12.60;99.90;;;;;;4998914;28;20491;-77
2022/07/05 04:16:53;;;;;;;4.40;3.83;;;12.60;99.90;;;;;;5013684;28;20034;-77
2022/07/05 04:19:18;;;;;;;5.13;4.20;;;12.50;99.90;;;;;;5014881;28;20041;-77
2022/07/05 04:21:44;;;;;;;4.95;4.10;;;12.60;99.90;;;;;;5012978;28;20031;-77
2022/07/05 04:24:10;;;;;;;3.95;3.63;;;12.70;99.90;;;;;;5015327;28;20036;-77
2022/07/05 04:26:36;;;;;;;5.70;4.28;;;12.80;99.90;;;;;;5014738;28;20097;-77
2022/07/05 04:29:02;;;;;;;4.97;4.20;;;12.80;99.90;;;;;;5014567;28;20037;-77
2022/07/05 04:31:27;;;;;;;4.97;4.25;;;12.80;99.90;;;;;;5014923;28;20034;-77
2022/07/05 04:33:53;;;;;;;9.57;4.72;;;12.90;99.90;;;;;;5012865;28;20066;-78
2022/07/05 04:36:18;;;;;;;5.65;4.45;;;12.90;99.90;;;;;;5012892;28;20035;-76
2022/07/05 04:38:44;;;;;;;5.43;4.15;;;12.90;99.90;;;;;;5014612;28;20042;-77
2022/07/05 04:41:09;;;;;;;6.38;4.63;;;13.00;99.90;;;;;;5013191;28;20030;-77
2022/07/05 04:43:35;;;;;;;6.72;4.30;;;13.10;99.90;;;;;;5014507;28;20463;-76
2022/07/05 04:46:00;;;;;;;6.80;4.32;;;13.10;99.90;;;;;;5014398;28;20038;-77
2022/07/05 04:48:26;;;;;;;4.82;4.28;;;13.10;99.90;;;;;;5014436;28;20038;-77
2022/07/05 04:50:52;;;;;;;5.05;4.60;;;13.10;99.90;;;;;;5012969;28;20026;-77
2022/07/05 04:53:18;;;;;;;7.45;4.90;;;13.20;99.90;;;;;;5014372;28;20476;-77
2022/07/05 04:55:43;;;;;;;9.25;6.25;;;13.20;99.90;;;;;;5012868;28;20034;-77
2022/07/05 04:58:09;;;;;;;13.35;6.85;;;13.30;99.90;;;;;;5014344;28;20037;-77
2022/07/05 05:00:34;;;;;;;8.52;6.32;;;13.30;99.90;;;;;;5012282;28;20034;-77
2022/07/05 05:03:00;;;;;;;9.20;6.32;;;13.40;99.90;;;;;;5015454;28;20041;-76
2022/07/05 05:05:25;;;;;;;9.07;5.68;;;13.40;99.90;;;;;;5017590;28;20027;-78
2022/07/05 05:07:51;;;;;;;6.50;5.10;;;13.50;99.90;;;;;;5017322;28;20042;-78
2022/07/05 05:10:17;;;;;;;5.53;4.30;;;13.70;99.90;;;;;;5017488;28;20038;-76
2022/07/05 05:12:42;;;;;;;7.15;4.05;;;13.70;99.90;;;;;;5015916;28;20041;-78
2022/07/05 05:15:09;;;;;;;4.82;4.15;;;13.80;99.90;;;;;;5016378;28;20038;-77
2022/07/05 05:17:39;;;;;;;5.97;3.90;;;13.90;99.90;;;;;;5017479;28;20035;-77
2022/07/05 05:20:13;;;;;;;4.97;3.88;;;14.00;99.90;;;;;;5017626;28;20034;-77
2022/07/05 05:22:38;;;;;;;7.55;3.38;;;14.10;99.90;;;;;;5017602;28;20125;-77
2022/07/05 05:25:05;;;;;;;5.25;3.58;;;14.20;99.90;;;;;;5017467;28;20117;-77
2022/07/05 05:27:30;;;;;;;4.53;3.63;;;14.30;99.90;;;;;;5017176;28;20038;-77
2022/07/05 05:29:56;;;;;;;5.18;3.47;;;14.40;99.90;;;;;;5017706;28;20030;-77
2022/07/05 05:32:21;;;;;;;6.32;3.85;;;14.50;99.90;;;;;;5017977;28;20034;-77
2022/07/05 05:34:47;;;;;;;3.47;3.17;;;14.60;99.90;;;;;;5017491;28;20038;-77
2022/07/05 05:37:12;;;;;;;5.25;3.38;;;14.70;99.90;;;;;;5017087;28;20038;-76
2022/07/05 05:39:38;;;;;;;6.40;3.03;;;14.80;99.90;;;;;;5017802;28;20381;-78
2022/07/05 05:42:04;;;;;;;4.30;3.15;;;14.90;99.90;;;;;;5017946;28;20170;-78
2022/07/05 05:44:29;;;;;;;5.28;2.90;;;15.00;99.90;;;;;;5017611;28;20045;-78
2022/07/05 05:46:55;;;;;;;3.63;2.72;;;15.10;99.90;;;;;;5018098;28;20038;-77
2022/07/05 05:49:20;;;;;;;7.68;2.80;;;15.20;99.90;;;;;;5016495;28;20792;-78
2022/07/05 05:51:46;;;;;;;5.25;3.03;;;15.30;99.90;;;;;;5017687;28;20042;-78
2022/07/05 05:54:12;;;;;;;5.32;3.08;;;15.40;99.90;;;;;;5017956;28;20026;-77
2022/07/05 05:56:38;;;;;;;6.25;3.47;;;15.50;99.90;;;;;;5015773;28;20039;-78
2022/07/05 05:59:04;;;;;;;3.60;2.67;;;15.50;99.90;;;;;;5018007;28;20077;-79
2022/07/05 06:01:30;;;;;;;3.72;2.80;;;15.70;99.90;;;;;;5017196;28;20043;-78
2022/07/05 06:03:55;;;;;;;3.22;2.55;;;15.70;99.90;;;;;;5018061;28;20039;-78
2022/07/05 06:06:21;;;;;;;5.68;2.20;;;15.80;99.90;;;;;;5015859;28;20034;-78
2022/07/05 06:08:47;;;;;;;3.60;2.70;;;15.80;99.90;;;;;;5018022;28;20042;-78
2022/07/05 06:11:13;;;;;;;3.67;2.30;;;15.90;99.90;;;;;;5016350;28;20054;-78
2022/07/05 06:13:39;;;;;;;3.15;2.00;;;16.00;99.90;;;;;;5016879;28;20128;-78
2022/07/05 06:16:06;;;;;;;6.57;2.10;;;16.10;99.90;;;;;;5016801;28;20041;-78
2022/07/05 06:18:32;;;;;;;4.80;1.98;;;16.20;99.90;;;;;;5018734;28;20113;-78
2022/07/05 06:20:57;;;;;;;5.05;2.00;;;16.30;99.90;;;;;;5016837;28;20117;-76
2022/07/05 06:23:23;;;;;;;4.35;2.50;;;16.40;99.90;;;;;;5017205;28;20062;-77
2022/07/05 06:25:49;;;;;;;3.25;2.40;;;16.50;99.90;;;;;;5015838;28;20034;-77
2022/07/05 06:28:15;;;;;;;4.90;2.20;;;16.60;99.90;;;;;;5016939;28;20038;-76
2022/07/05 06:30:41;;;;;;;5.75;1.90;;;16.70;99.90;;;;;;5016823;28;20031;-77
2022/07/05 06:33:07;;;;;;;4.15;1.90;;;16.90;99.90;;;;;;5015033;28;20057;-76
2022/07/05 06:35:32;;;;;;;3.13;2.10;;;17.00;99.90;;;;;;5016549;28;20062;-77
2022/07/05 06:38:06;;;;;;;2.75;2.10;;;17.00;99.90;;;;;;5016499;28;20449;-77
2022/07/05 06:40:37;;;;;;;2.85;2.17;;;17.20;99.90;;;;;;5015508;28;20077;-76
2022/07/05 06:43:05;;;;;;;3.47;1.90;;;17.30;99.90;;;;;;5016398;28;20081;-76
2022/07/05 06:45:31;;;;;;;4.03;2.05;;;17.40;99.90;;;;;;5016827;28;20225;-77
2022/07/05 06:48:02;;;;;;;3.67;1.98;;;17.50;99.90;;;;;;5016499;28;20620;-77
2022/07/05 06:50:39;;;;;;;4.20;2.03;;;17.60;99.90;;;;;;5014859;28;20030;-77
2022/07/05 06:53:05;;;;;;;2.78;1.65;;;17.70;99.90;;;;;;5016159;28;20117;-77
2022/07/05 06:55:31;;;;;;;3.83;2.17;;;17.90;99.90;;;;;;5014746;28;20039;-77
2022/07/05 06:58:06;;;;;;;4.70;1.90;;;18.00;99.90;;;;;;5016278;28;20031;-77
2022/07/05 07:00:32;;;;;;;2.88;1.85;;;18.20;99.90;;;;;;5016016;28;20041;-77
2022/07/05 07:02:58;;;;;;;3.35;1.88;;;18.30;99.90;;;;;;5016903;28;20039;-77
2022/07/05 07:05:23;;;;;;;3.05;1.70;;;18.40;99.90;;;;;;5015099;28;20181;-77
2022/07/05 07:10:34;;;;;;;3.20;1.50;;;18.70;99.90;;;;;;5016642;28;20030;-77
2022/07/05 07:13:00;;;;;;;2.45;1.70;;;18.90;99.90;;;;;;5016055;28;20034;-77
2022/07/05 07:15:27;;;;;;;2.88;1.42;;;19.00;99.90;;;;;;5016232;28;20475;-77
2022/07/05 07:17:53;;;;;;;2.92;1.65;;;19.30;99.90;;;;;;5015987;28;20042;-78
2022/07/05 07:20:19;;;;;;;8.40;2.50;;;19.50;99.90;;;;;;5015410;28;20040;-77
2022/07/05 07:22:44;;;;;;;4.43;1.40;;;19.70;99.90;;;;;;5014920;28;20046;-77
2022/07/05 07:25:11;;;;;;;4.05;1.50;;;19.90;99.90;;;;;;5015644;28;20053;-77
2022/07/05 07:27:54;;;;;;;3.15;1.10;;;20.20;96.90;;;;;;5015977;28;20039;-78
2022/07/05 07:30:22;;;;;;;2.85;1.20;;;20.50;95.30;;;;;;5016573;28;20030;-83
2022/07/05 07:32:48;;;;;;;2.85;1.42;;;20.60;95.50;;;;;;5014126;28;20097;-76
2022/07/05 07:35:14;;;;;;;2.90;1.60;;;20.90;96.00;;;;;;5016182;28;20547;-79
2022/07/05 07:37:39;;;;;;;1.65;1.17;;;21.10;95.90;;;;;;5017510;28;20404;-81
2022/07/05 07:40:06;;;;;;;2.95;1.60;;;21.30;95.70;;;;;;5016771;28;20037;-77
2022/07/05 07:42:32;;;;;;;3.17;1.50;;;21.30;95.40;;;;;;5016045;28;20046;-77
2022/07/05 07:44:57;;;;;;;6.03;1.48;;;21.50;93.80;;;;;;5015066;28;20030;-76
2022/07/05 07:47:23;;;;;;;1.73;1.42;;;21.60;94.30;;;;;;5016688;28;20062;-78
2022/07/05 07:49:49;;;;;;;3.13;1.50;;;21.80;94.60;;;;;;5016787;28;20034;-78
2022/07/05 07:52:15;;;;;;;2.72;1.50;;;22.00;92.50;;;;;;5017009;28;20556;-78
2022/07/05 07:54:40;;;;;;;2.88;1.58;;;22.20;92.70;;;;;;5017044;28;20042;-77
2022/07/05 07:57:06;;;;;;;4.60;1.50;;;22.40;92.20;;;;;;5015999;28;20499;-77
2022/07/05 07:59:32;;;;;;;7.60;1.60;;;22.40;92.20;;;;;;5017855;28;20034;-78
2022/07/05 08:01:58;;;;;;;4.65;1.65;;;22.60;91.30;;;;;;5015442;28;20049;-77
2022/07/05 08:04:23;;;;;;;8.02;1.70;;;22.90;90.90;;;;;;5014692;28;20383;-77
2022/07/05 08:06:49;;;;;;;12.80;1.67;;;23.00;91.00;;;;;;5014789;28;20425;-76
2022/07/05 08:09:15;;;;;;;8.23;1.92;;;23.10;90.40;;;;;;5014778;28;20034;-76
2022/07/05 08:11:40;;;;;;;9.75;1.75;;;23.20;90.70;;;;;;5013517;28;20030;-77
2022/07/05 08:14:06;;;;;;;6.00;2.10;;;23.50;86.70;;;;;;5013298;28;20054;-77
2022/07/05 08:16:32;;;;;;;7.53;1.90;;;23.90;84.30;;;;;;5014478;28;20031;-76
2022/07/05 08:21:42;;;;;;;9.57;2.47;;;24.20;81.80;;;;;;5014085;28;20054;-73
2022/07/05 08:24:11;;;;;;;6.78;2.00;;;24.30;81.80;;;;;;5014089;28;20038;-73
2022/07/05 08:26:37;;;;;;;5.13;2.00;;;24.20;79.20;;;;;;5012903;28;20084;-75
2022/07/05 08:29:05;;;;;;;5.70;1.98;;;24.50;77.20;;;;;;5014246;28;20034;-75
2022/07/05 08:31:33;;;;;;;4.95;1.67;;;24.30;77.50;;;;;;5014946;28;20081;-79
2022/07/05 08:33:59;;;;;;;5.30;1.70;;;24.30;78.60;;;;;;5015859;28;20428;-77
2022/07/05 08:36:25;;;;;;;3.85;1.70;;;24.30;79.10;;;;;;5014755;28;20031;-77
2022/07/05 08:38:50;;;;;;;3.45;1.60;;;24.30;78.60;;;;;;5017572;28;20038;-77
2022/07/05 08:41:19;;;;;;;3.15;2.00;;;24.80;78.80;;;;;;5018535;28;20046;-77
2022/07/05 08:43:46;;;;;;;5.38;1.73;;;24.90;78.20;;;;;;5016670;28;20046;-77
2022/07/05 08:46:13;;;;;;;2.53;1.67;;;25.30;76.90;;;;;;5017814;28;20100;-77
2022/07/05 08:48:43;;;;;;;2.90;1.50;;;25.50;74.60;;;;;;5017395;28;20475;-77
2022/07/05 08:51:14;;;;;;;4.18;1.92;;;25.60;78.50;;;;;;5017256;28;20093;-78
2022/07/05 08:53:41;;;;;;;4.25;1.40;;;25.80;75.10;;;;;;5017894;28;20038;-78
2022/07/05 08:56:08;;;;;;;3.67;1.23;;;25.90;73.50;;;;;;5017778;28;20109;-77
2022/07/05 08:58:35;;;;;;;4.20;1.35;;;25.60;72.80;;;;;;5018022;28;20579;-77
2022/07/05 09:01:01;;;;;;;3.78;1.25;;;25.70;75.10;;;;;;5017536;28;20043;-77
2022/07/05 09:03:34;;;;;;;2.95;1.10;;;25.80;72.70;;;;;;5017635;28;20121;-77
2022/07/05 09:06:03;;;;;;;2.28;1.20;;;25.80;72.80;;;;;;5017296;28;20034;-76
2022/07/05 09:08:38;;;;;;;3.92;1.20;;;25.80;72.00;;;;;;5018505;28;20093;-78
2022/07/05 09:11:05;;;;;;;2.83;1.02;;;26.10;72.60;;;;;;5017716;28;20038;-77
2022/07/05 09:13:39;;;;;;;1.88;1.40;;;26.20;71.90;;;;;;5017324;28;20459;-78
2022/07/05 09:16:05;;;;;;;4.32;1.38;;;26.30;71.40;;;;;;5017327;28;20034;-78
2022/07/05 09:18:48;;;;;;;4.22;1.40;;;26.40;70.80;;;;;;5017038;28;20561;-78
2022/07/05 09:21:25;;;;;;;2.65;1.30;;;26.50;69.00;;;;;;5016526;28;20041;-78
2022/07/05 09:23:57;;;;;;;4.60;1.50;;;26.70;69.90;;;;;;5017337;28;20041;-77
2022/07/05 09:26:48;;;;;;;2.58;1.02;;;26.70;71.40;;;;;;5016887;28;20109;-77
2022/07/05 09:29:19;;;;;;;2.42;1.20;;;26.50;70.80;;;;;;5017050;28;20030;-77
2022/07/05 09:31:48;;;;;;;2.83;1.17;;;26.50;72.00;;;;;;5017013;28;20120;-78
2022/07/05 09:34:16;;;;;;;5.93;1.38;;;26.30;70.80;;;;;;5016727;28;20034;-78
2022/07/05 09:36:55;;;;;;;4.13;1.40;;;26.50;67.90;;;;;;5016626;28;20039;-77
2022/07/05 09:39:37;;;;;;;4.18;1.50;;;26.50;68.20;;;;;;5017451;28;20046;-77
2022/07/05 09:42:25;;;;;;;5.60;1.20;;;26.60;68.90;;;;;;5015040;28;20042;-77
2022/07/05 09:44:53;;;;;;;4.20;1.35;;;26.70;70.40;;;;;;5015536;28;20534;-78
2022/07/05 09:47:21;;;;;;;3.70;1.30;;;27.00;69.10;;;;;;5016830;28;20556;-78
2022/07/05 09:49:51;;;;;;;1.40;1.30;;;27.40;69.70;;;;;;5017304;28;20037;-78
2022/07/05 09:52:36;;;;;;;2.55;1.33;;;27.70;68.50;;;;;;5015967;28;20117;-78
2022/07/05 09:55:03;;;;;;;3.30;1.35;;;27.90;68.90;;;;;;5017759;28;20515;-78
2022/07/05 09:57:28;;;;;;;4.15;1.40;;;28.20;65.70;;;;;;5015669;28;20041;-78
2022/07/05 10:00:10;;;;;;;2.88;1.38;;;28.30;65.20;;;;;;5016713;28;20037;-78
2022/07/05 10:02:42;;;;;;;4.38;1.45;;;28.70;63.50;;;;;;5015771;28;20126;-78
2022/07/05 10:05:13;;;;;;;1.65;1.10;;;29.10;63.10;;;;;;5017515;28;20844;-77
2022/07/05 10:07:47;;;;;;;3.95;1.10;;;28.80;57.60;;;;;;5016060;28;20534;-78
2022/07/05 10:10:33;;;;;;;3.20;0.93;;;28.40;59.50;;;;;;5018134;28;20091;-78
2022/07/05 10:13:01;;;;;;;1.73;1.10;;;27.60;59.90;;;;;;5017486;28;20050;-78
2022/07/05 10:15:30;;;;;;;1.88;1.10;;;27.10;60.00;;;;;;5016078;28;20136;-77
2022/07/05 10:18:14;;;;;;;2.33;0.98;;;26.80;62.00;;;;;;5015652;28;20042;-77
2022/07/05 10:20:44;;;;;;;2.35;1.00;;;27.00;64.80;;;;;;5016026;28;20027;-77
2022/07/05 10:23:15;;;;;;;2.08;1.17;;;28.00;59.20;;;;;;5014761;28;20472;-77
2022/07/05 10:25:43;;;;;;;2.03;0.90;;;28.40;58.40;;;;;;5014003;28;20030;-77
2022/07/05 10:28:10;;;;;;;1.33;0.90;;;28.60;57.10;;;;;;5014862;28;20097;-77
2022/07/05 10:30:36;;;;;;;4.43;0.90;;;27.80;57.10;;;;;;5015156;28;20057;-77
2022/07/05 10:33:03;;;;;;;3.05;1.05;;;28.40;59.90;;;;;;5014994;28;20038;-77
2022/07/05 10:35:29;;;;;;;2.15;0.93;;;28.80;55.60;;;;;;5015079;28;20106;-77
2022/07/05 10:37:56;;;;;;;1.67;0.90;;;28.90;54.70;;;;;;5014715;28;20038;-77
2022/07/05 10:40:22;;;;;;;3.63;1.10;;;29.20;56.30;;;;;;5014661;28;20058;-76
2022/07/05 10:42:54;;;;;;;3.65;1.20;;;29.00;58.20;;;;;;5014899;28;20471;-77
2022/07/05 10:45:26;;;;;;;2.03;1.13;;;29.20;57.00;;;;;;5015218;28;20035;-77
2022/07/05 10:48:11;;;;;;;1.40;1.00;;;29.50;55.50;;;;;;5015566;28;20069;-74
2022/07/05 10:50:43;;;;;;;2.28;1.13;;;29.60;54.80;;;;;;5015863;28;20037;-77
2022/07/05 10:53:09;;;;;;;3.35;1.08;;;28.80;57.90;;;;;;5015326;28;20688;-81
2022/07/05 10:55:49;;;;;;;3.72;1.13;;;27.80;57.50;;;;;;5015548;28;20162;-79
2022/07/05 10:58:27;;;;;;;5.05;0.95;;;27.40;57.90;;;;;;5017242;28;20030;-78
2022/07/05 11:01:11;;;;;;;2.85;1.20;;;27.90;58.30;;;;;;5015061;28;20034;-78
2022/07/05 11:03:41;;;;;;;1.50;0.93;;;28.40;55.90;;;;;;5014071;28;20046;-78
2022/07/05 11:06:08;;;;;;;3.13;1.05;;;28.10;56.00;;;;;;5015133;28;20135;-78
2022/07/05 11:08:59;;;;;;;5.78;1.30;;;27.40;56.90;;;;;;5016422;28;20563;-78
2022/07/05 11:11:42;;;;;;;4.25;1.00;;;27.10;60.60;;;;;;5015172;28;20169;-77
2022/07/05 11:14:20;;;;;;;3.17;0.88;;;27.70;56.90;;;;;;5016600;28;20475;-78
2022/07/05 11:16:46;;;;;;;3.28;0.90;;;28.50;56.00;;;;;;5015447;28;20404;-78
2022/07/05 11:19:18;;;;;;;2.58;1.17;;;29.00;57.00;;;;;;5015186;28;20041;-78
2022/07/05 11:22:01;;;;;;;4.63;0.90;;;29.00;52.90;;;;;;5014922;28;20475;-77
2022/07/05 11:24:29;;;;;;;2.30;1.10;;;29.10;52.30;;;;;;5015005;28;20043;-77
2022/07/05 11:26:58;;;;;;;2.35;1.10;;;29.50;54.00;;;;;;5014783;28;20026;-77
2022/07/05 11:29:40;;;;;;;2.30;1.10;;;29.80;52.30;;;;;;5014610;28;20034;-77
2022/07/05 11:32:14;;;;;;;3.25;1.10;;;30.10;53.10;;;;;;5014949;28;20068;-77
2022/07/05 11:34:41;;;;;;;2.05;1.10;;;30.30;54.10;;;;;;5014621;28;20046;-77
2022/07/05 11:37:13;;;;;;;2.25;0.93;;;30.80;52.10;;;;;;5014735;28;20042;-73
2022/07/05 11:39:39;;;;;;;3.80;1.20;;;31.40;54.20;;;;;;5014552;28;20061;-73
2022/07/05 11:42:05;;;;;;;2.70;1.10;;;31.00;51.60;;;;;;5014417;28;20064;-73
2022/07/05 11:44:34;;;;;;;2.47;1.10;;;30.70;53.10;;;;;;5014735;28;20566;-74
2022/07/05 11:47:01;;;;;;;1.92;1.00;;;30.90;49.80;;;;;;5032932;28;20403;-73
2022/07/05 11:49:26;;;;;;;2.30;0.90;;;30.70;49.50;;;;;;5028324;28;20491;-73
2022/07/05 11:52:00;;;;;;;2.10;1.00;;;30.40;50.80;;;;;;5033737;28;20065;-74
2022/07/05 11:54:27;;;;;;;2.65;0.90;;;30.60;52.30;;;;;;5033707;28;20550;-73
2022/07/05 11:56:53;;;;;;;4.78;1.20;;;30.70;49.30;;;;;;5033579;28;20033;-73
2022/07/05 11:59:20;;;;;;;3.08;1.10;;;30.80;49.50;;;;;;5032422;28;20038;-74
2022/07/05 12:01:46;;;;;;;1.25;0.80;;;31.10;48.40;;;;;;5032899;28;20037;-74
2022/07/05 12:04:11;;;;;;;1.40;0.88;;;31.20;48.60;;;;;;5034101;28;20046;-74
2022/07/05 12:06:43;;;;;;;1.40;0.98;;;30.70;47.10;;;;;;5033901;28;20116;-74
2022/07/05 12:09:08;;;;;;;1.67;0.90;;;29.80;49.20;;;;;;5034329;28;20038;-74
2022/07/05 12:14:22;;;;;;;2.90;1.10;;;29.70;52.90;;;;;;5037280;28;20034;-74
2022/07/05 12:16:49;;;;;;;1.40;1.00;;;30.20;56.50;;;;;;5037322;28;20105;-74
2022/07/05 12:19:25;;;;;;;1.92;0.90;;;30.40;51.30;;;;;;5037473;28;20030;-73
2022/07/05 12:21:54;;;;;;;5.60;1.10;;;30.70;51.60;;;;;;5037779;28;20033;-73
2022/07/05 12:24:20;;;;;;;3.17;1.00;;;31.10;50.90;;;;;;5037569;28;20125;-73
2022/07/05 12:26:46;;;;;;;1.52;0.95;;;31.30;48.40;;;;;;5037068;28;20026;-73
2022/07/05 12:29:12;;;;;;;2.13;1.10;;;31.30;49.20;;;;;;5037390;28;20082;-74
2022/07/05 12:31:37;;;;;;;2.22;1.00;;;31.50;49.60;;;;;;5037234;28;20026;-74
2022/07/05 12:34:17;;;;;;;1.73;1.10;;;31.50;49.20;;;;;;5035682;28;20037;-74
2022/07/05 12:36:43;;;;;;;1.75;1.13;;;31.30;49.30;;;;;;5036957;28;20037;-73
2022/07/05 12:39:08;;;;;;;5.15;1.60;;;31.10;50.90;;;;;;5036944;28;20041;-74
2022/07/05 12:41:34;;;;;;;4.45;1.48;;;31.40;53.20;;;;;;5036989;28;20033;-74
2022/07/05 12:44:01;;;;;;;2.72;1.23;;;32.00;50.50;;;;;;5036726;28;20042;-74
2022/07/05 12:46:40;;;;;;;2.92;1.20;;;32.50;49.50;;;;;;5036983;28;20529;-73
2022/07/05 12:49:06;;;;;;;2.83;1.10;;;32.50;46.50;;;;;;5036941;28;20495;-74
2022/07/05 12:51:37;;;;;;;3.78;1.27;;;32.50;47.90;;;;;;5036638;28;20041;-73
2022/07/05 12:59:36;;;;;;;1.75;0.90;;;32.80;46.80;;;;;;5037362;28;20089;-73
2022/07/05 13:02:03;;;;;;;2.80;1.20;;;32.00;47.20;;;;;;5036470;28;20033;-74
2022/07/05 13:04:29;;;;;;;4.32;1.30;;;31.10;47.60;;;;;;5035112;28;20045;-74
2022/07/05 13:06:55;;;;;;;3.72;1.30;;;30.30;48.20;;;;;;5036755;28;20052;-74
2022/07/05 13:09:32;;;;;;;1.60;1.42;;;30.40;51.10;;;;;;5035155;28;20084;-74
2022/07/05 13:12:24;;;;;;;2.65;1.08;;;31.00;48.60;;;;;;5034953;28;20092;-74
2022/07/05 13:14:53;;;;;;;5.30;1.30;;;31.40;48.00;;;;;;5036725;28;20034;-74
2022/07/05 13:17:21;;;;;;;3.88;1.40;;;32.10;47.60;;;;;;5036338;28;20030;-73
2022/07/05 13:19:48;;;;;;;3.40;1.20;;;32.20;47.20;;;;;;5036499;28;20052;-74
2022/07/05 13:22:14;;;;;;;2.70;1.40;;;32.30;45.30;;;;;;5037532;28;20034;-74
2022/07/05 13:24:41;;;;;;;5.18;1.20;;;32.40;44.80;;;;;;5035806;28;20088;-74
2022/07/05 13:27:08;;;;;;;2.13;1.00;;;31.50;50.60;;;;;;5035979;28;20026;-74
2022/07/05 13:29:33;;;;;;;3.28;1.10;;;32.00;50.80;;;;;;5036584;28;20030;-74
2022/07/05 13:31:59;;;;;;;1.63;0.95;;;33.20;45.70;;;;;;5034657;28;20529;-74
2022/07/05 13:34:26;;;;;;;2.75;1.00;;;34.40;44.80;;;;;;5036036;28;20037;-74
2022/07/05 13:36:52;;;;;;;1.73;1.20;;;35.40;42.00;;;;;;5036019;28;20502;-74
2022/07/05 13:39:19;;;;;;;2.85;1.10;;;35.80;40.00;;;;;;5036215;28;20124;-74
2022/07/05 13:41:48;;;;;;;2.10;0.90;;;36.20;39.00;;;;;;5035642;28;20474;-74
2022/07/05 13:44:14;;;;;;;3.00;1.23;;;36.40;39.60;;;;;;5035721;28;20136;-74
2022/07/05 13:46:39;;;;;;;1.85;1.10;;;36.10;40.20;;;;;;5035937;28;20030;-74
2022/07/05 13:49:05;;;;;;;5.18;1.23;;;36.20;43.20;;;;;;5034634;28;20030;-74
2022/07/05 13:51:30;;;;;;;5.07;1.27;;;35.90;43.00;;;;;;5036059;28;20567;-75
2022/07/05 13:53:56;;;;;;;2.55;1.25;;;36.20;39.40;;;;;;5036218;28;20049;-74
2022/07/05 13:56:22;;;;;;;3.05;1.35;;;36.50;39.40;;;;;;5035721;28;20034;-75
2022/07/05 13:58:48;;;;;;;4.20;1.20;;;36.60;38.20;;;;;;5034470;28;20483;-74
2022/07/05 14:01:14;;;;;;;3.03;1.33;;;36.90;39.90;;;;;;5035792;28;20034;-74
2022/07/05 14:03:39;;;;;;;3.63;1.20;;;37.10;38.40;;;;;;5035903;28;20412;-75
2022/07/05 14:06:05;;;;;;;2.40;1.30;;;37.90;41.50;;;;;;5035652;28;20033;-74
2022/07/05 14:08:31;;;;;;;2.75;1.58;;;37.90;36.90;;;;;;5035825;28;20030;-74
2022/07/05 14:10:57;;;;;;;2.10;1.25;;;37.90;38.30;;;;;;5035205;28;20030;-74
2022/07/05 14:13:24;;;;;;;3.45;1.25;;;38.50;37.50;;;;;;5035693;28;20474;-74
2022/07/05 14:15:50;;;;;;;3.20;1.40;;;38.00;36.90;;;;;;5035487;28;20061;-74
2022/07/05 14:18:17;;;;;;;2.70;1.27;;;38.40;36.30;;;;;;5035342;28;20408;-74
2022/07/05 14:20:44;;;;;;;2.65;1.10;;;38.20;39.20;;;;;;5035573;28;20034;-75
2022/07/05 14:23:14;;;;;;;3.17;1.20;;;38.40;36.90;;;;;;5035255;28;20626;-75
2022/07/05 14:25:41;;;;;;;2.30;1.23;;;38.70;36.10;;;;;;5035337;28;20133;-75
2022/07/05 14:28:07;;;;;;;4.28;1.30;;;39.80;35.10;;;;;;5035348;28;20040;-75
2022/07/05 14:30:42;;;;;;;2.75;1.20;;;40.30;33.70;;;;;;5033724;28;20109;-75
2022/07/05 14:33:09;;;;;;;3.72;1.35;;;40.60;35.50;;;;;;5035590;28;20121;-79
2022/07/05 14:35:35;;;;;;;3.42;1.35;;;39.90;34.20;;;;;;5034544;28;20101;-76
2022/07/05 14:38:02;;;;;;;2.30;1.17;;;38.30;36.90;;;;;;5035293;28;20034;-76
2022/07/05 14:40:30;;;;;;;2.15;1.25;;;36.80;37.40;;;;;;5035045;28;20065;-77
2022/07/05 14:42:57;;;;;;;2.60;1.30;;;37.40;37.20;;;;;;5034323;28;20575;-76
2022/07/05 14:45:23;;;;;;;1.90;1.20;;;38.30;36.40;;;;;;5034995;28;20030;-76
2022/07/05 14:47:49;;;;;;;3.05;1.20;;;38.40;36.10;;;;;;5029339;28;20561;-75
2022/07/05 14:50:14;;;;;;;3.67;1.30;;;38.70;40.30;;;;;;5034557;28;20030;-76
2022/07/05 14:52:41;;;;;;;1.83;1.23;;;40.20;39.70;;;;;;5034613;28;20038;-76
2022/07/05 14:55:07;;;;;;;3.13;1.50;;;41.20;34.00;;;;;;5034367;28;20045;-78
2022/07/05 14:57:32;;;;;;;3.00;1.30;;;41.70;40.60;;;;;;5037079;28;20049;-75
2022/07/05 14:59:58;;;;;;;2.78;1.45;;;41.80;33.30;;;;;;5037276;28;20053;-78
2022/07/05 15:02:24;;;;;;;3.22;1.63;;;42.20;31.60;;;;;;5036963;28;20112;-76
2022/07/05 15:04:49;;;;;;;2.63;1.40;;;43.40;32.40;;;;;;5034512;28;20770;-76
2022/07/05 15:07:15;;;;;;;3.22;1.48;;;42.90;31.70;;;;;;5034609;28;20045;-76
2022/07/05 15:09:41;;;;;;;3.15;1.30;;;42.70;30.70;;;;;;5035979;28;20428;-77
2022/07/05 15:12:07;;;;;;;2.33;1.38;;;43.00;32.10;;;;;;5037794;28;20088;-79
2022/07/05 15:14:33;;;;;;;3.50;1.50;;;43.90;31.00;;;;;;5036197;28;20128;-76
2022/07/05 15:16:58;;;;;;;2.08;1.60;;;44.10;29.40;;;;;;5035902;28;20109;-78
2022/07/05 15:19:24;;;;;;;2.08;1.50;;;43.50;30.10;;;;;;5035593;28;20046;-77
2022/07/05 15:21:50;;;;;;;4.57;1.38;;;42.90;29.90;;;;;;5035101;28;20037;-76
2022/07/05 15:24:17;;;;;;;3.53;1.35;;;42.40;30.00;;;;;;5034336;28;20884;-74
2022/07/05 15:26:45;;;;;;;5.97;1.45;;;41.90;30.70;;;;;;5033154;28;20037;-76
2022/07/05 15:29:11;;;;;;;1.60;1.50;;;42.40;32.50;;;;;;5035282;28;20495;-77
2022/07/05 15:31:37;;;;;;;1.85;1.30;;;42.70;31.60;;;;;;5033902;28;20038;-75
2022/07/05 15:34:04;;;;;;;1.92;1.40;;;43.30;32.10;;;;;;5034062;28;20044;-75
2022/07/05 15:36:33;;;;;;;7.22;1.52;;;43.20;32.50;;;;;;5034177;28;20034;-75
2022/07/05 15:39:03;;;;;;;2.65;1.38;;;42.70;30.00;;;;;;5034431;28;20105;-75
2022/07/05 15:41:32;;;;;;;2.65;1.30;;;43.80;29.60;;;;;;5034150;28;20030;-75
2022/07/05 15:43:58;;;;;;;1.55;1.45;;;43.20;30.40;;;;;;5034096;28;20573;-75
2022/07/05 15:46:24;;;;;;;2.28;1.27;;;41.40;30.30;;;;;;5032311;28;20160;-77
2022/07/05 15:48:50;;;;;;;3.85;1.30;;;39.70;32.30;;;;;;5030860;28;20091;-75
2022/07/05 15:51:18;;;;;;;2.80;1.10;;;37.90;35.10;;;;;;5033783;28;20026;-74
2022/07/05 15:53:45;;;;;;;2.90;1.30;;;35.70;38.80;;;;;;5033341;28;20034;-76
2022/07/05 15:56:11;;;;;;;2.40;1.10;;;33.90;40.50;;;;;;5033576;28;20104;-76
2022/07/05 15:58:39;;;;;;;3.22;1.50;;;35.10;42.50;;;;;;5034374;28;20497;-76
2022/07/05 16:01:05;;;;;;;5.63;1.83;;;37.30;38.40;;;;;;5033351;28;20109;-77
2022/07/05 16:03:34;;;;;;;2.47;1.10;;;38.30;36.30;;;;;;5034692;28;20534;-81
2022/07/05 16:06:00;;;;;;;2.08;1.30;;;40.40;33.00;;;;;;5034139;28;20055;-75
2022/07/05 16:08:26;;;;;;;2.17;1.13;;;41.00;33.10;;;;;;5034480;28;20034;-79
2022/07/05 16:10:53;;;;;;;2.20;1.10;;;41.80;33.20;;;;;;5028654;28;20073;-79
2022/07/05 16:13:19;;;;;;;2.22;1.20;;;42.60;31.30;;;;;;5011185;28;20042;-77
2022/07/05 16:18:35;;;;;;;4.38;2.00;;;42.00;31.80;;;;;;5014690;28;20072;-75
2022/07/05 16:21:03;;;;;;;2.35;1.13;;;41.40;32.20;;;;;;5002529;28;20034;-81
2022/07/05 16:23:30;;;;;;;5.22;1.80;;;41.00;34.50;;;;;;4993949;28;20035;-82
2022/07/05 16:25:57;;;;;;;3.50;2.42;;;41.80;33.80;;;;;;4993576;28;20038;-80
2022/07/05 16:28:23;;;;;;;3.92;1.65;;;42.20;32.30;;;;;;4992767;28;20045;-78
2022/07/05 16:30:49;;;;;;;2.17;1.20;;;41.70;31.30;;;;;;4994443;28;20035;-81
2022/07/05 16:33:15;;;;;;;2.85;1.40;;;41.10;31.90;;;;;;4993943;28;20086;-73
2022/07/05 16:35:41;;;;;;;1.42;1.20;;;39.10;32.00;;;;;;5009097;28;20543;-73
2022/07/05 16:38:06;;;;;;;1.50;1.00;;;37.70;36.50;;;;;;5031281;28;20451;-73
2022/07/05 16:40:32;;;;;;;4.47;1.30;;;36.20;35.30;;;;;;5033441;28;20034;-74
2022/07/05 16:42:57;;;;;;;1.50;1.25;;;34.80;37.20;;;;;;5033466;28;20108;-76
2022/07/05 16:45:23;;;;;;;2.30;1.20;;;33.50;39.70;;;;;;5031941;28;20815;-72
2022/07/05 16:47:48;;;;;;;2.35;1.23;;;32.60;41.70;;;;;;5033269;28;20052;-72
2022/07/05 16:50:14;;;;;;;1.80;1.50;;;31.90;41.90;;;;;;5033268;28;20105;-74
2022/07/05 16:52:41;;;;;;;3.72;1.50;;;31.40;44.30;;;;;;4999499;28;20127;-72
2022/07/05 16:55:07;;;;;;;1.05;0.95;;;31.10;43.90;;;;;;4995697;28;20031;-72
2022/07/05 16:57:33;;;;;;;3.42;1.10;;;30.80;45.40;;;;;;5004198;28;20118;-73
2022/07/05 16:59:59;;;;;;;2.70;1.00;;;30.40;45.60;;;;;;5000228;28;20057;-72
2022/07/05 17:02:25;;;;;;;2.88;1.10;;;29.90;46.20;;;;;;5016697;28;20045;-72
2022/07/05 17:04:51;;;;;;;1.73;1.05;;;29.60;47.70;;;;;;5016577;28;20037;-72
2022/07/05 17:07:17;;;;;;;1.90;1.10;;;29.50;45.60;;;;;;5014523;28;20030;-71
2022/07/05 17:09:42;;;;;;;2.65;1.30;;;29.20;47.50;;;;;;5017251;28;20069;-71